createdAt,value
2022-07-28T00:00:15.678Z,96.80
2022-07-28T00:02:43.204Z,96.90
2022-07-28T00:05:11.262Z,96.90
2022-07-28T00:07:38.554Z,97.00
2022-07-28T00:10:06.490Z,97.00
2022-07-28T00:12:34.222Z,97.00
2022-07-28T00:15:02.220Z,97.10
2022-07-28T00:17:29.542Z,97.50
2022-07-28T00:19:56.809Z,97.20
2022-07-28T00:22:25.706Z,97.30
2022-07-28T00:24:53.141Z,97.60
2022-07-28T00:27:20.471Z,97.70
2022-07-28T00:29:50.945Z,97.50
2022-07-28T00:32:20.617Z,97.60
2022-07-28T00:34:48.669Z,97.70
2022-07-28T00:37:15.997Z,98.00
2022-07-28T00:39:44.007Z,98.40
2022-07-28T00:42:12.291Z,98.30
2022-07-28T00:44:41.887Z,98.40
2022-07-28T00:47:09.600Z,98.60
2022-07-28T00:49:37.077Z,98.70
2022-07-28T00:52:09.597Z,98.80
2022-07-28T00:54:37.323Z,98.90
2022-07-28T00:57:04.920Z,99.00
2022-07-28T00:59:33.663Z,99.00
2022-07-28T01:02:02.535Z,99.10
2022-07-28T01:04:30.454Z,99.20
2022-07-28T01:06:57.827Z,99.30
2022-07-28T01:09:52.961Z,99.30
2022-07-28T01:13:11.554Z,99.40
2022-07-28T01:15:46.472Z,99.40
2022-07-28T01:18:21.350Z,99.40
2022-07-28T01:21:03.484Z,99.50
2022-07-28T01:23:33.984Z,99.50
2022-07-28T01:26:39.074Z,99.40
2022-07-28T01:29:43.614Z,99.40
2022-07-28T01:32:17.258Z,99.30
2022-07-28T01:35:00.004Z,99.20
2022-07-28T01:37:30.733Z,99.30
2022-07-28T01:40:02.832Z,99.20
2022-07-28T01:42:38.586Z,99.10
2022-07-28T01:45:08.564Z,99.10
2022-07-28T01:47:37.146Z,99.10
2022-07-28T01:50:08.309Z,99.00
2022-07-28T01:52:38.839Z,99.00
2022-07-28T01:55:07.788Z,98.90
2022-07-28T01:57:37.131Z,98.90
2022-07-28T02:00:08.718Z,98.90
2022-07-28T02:02:42.651Z,99.20
2022-07-28T02:05:16.903Z,98.80
2022-07-28T02:07:48.345Z,98.90
2022-07-28T02:10:17.770Z,98.80
2022-07-28T02:12:48.716Z,98.80
2022-07-28T02:15:16.532Z,98.80
2022-07-28T02:17:46.250Z,98.70
2022-07-28T02:20:16.831Z,98.60
2022-07-28T02:22:51.309Z,98.30
2022-07-28T02:25:20.443Z,98.20
2022-07-28T02:28:09.527Z,98.40
2022-07-28T02:30:50.852Z,98.00
2022-07-28T02:33:35.649Z,97.90
2022-07-28T02:36:20.129Z,97.80
2022-07-28T02:38:49.825Z,97.80
2022-07-28T02:41:27.267Z,97.70
2022-07-28T02:43:59.982Z,97.70
2022-07-28T02:46:35.448Z,97.70
2022-07-28T02:49:10.795Z,97.60
2022-07-28T02:51:40.586Z,97.50
2022-07-28T02:54:09.126Z,97.40
2022-07-28T02:56:37.539Z,97.20
2022-07-28T02:59:05.294Z,97.10
2022-07-28T03:01:33.748Z,97.00
2022-07-28T03:04:01.675Z,96.90
2022-07-28T03:06:29.660Z,97.00
2022-07-28T03:08:57.474Z,97.10
2022-07-28T03:11:25.048Z,97.20
2022-07-28T03:13:52.382Z,97.30
2022-07-28T03:16:20.175Z,97.40
2022-07-28T03:18:48.368Z,97.50
2022-07-28T03:21:15.682Z,97.50
2022-07-28T03:23:45.512Z,97.50
2022-07-28T03:26:19.365Z,97.40
2022-07-28T03:28:48.957Z,97.30
2022-07-28T03:31:18.022Z,97.30
2022-07-28T03:33:46.675Z,97.20
2022-07-28T03:36:18.677Z,97.20
2022-07-28T03:38:55.603Z,97.10
2022-07-28T03:41:25.449Z,97.00
2022-07-28T03:43:54.699Z,97.00
2022-07-28T03:46:23.500Z,96.90
2022-07-28T03:48:51.033Z,96.90
2022-07-28T03:51:18.357Z,96.80
2022-07-28T03:53:47.309Z,96.80
2022-07-28T03:56:14.603Z,96.90
2022-07-28T03:58:42.090Z,96.80
2022-07-28T04:01:09.717Z,96.40
2022-07-28T04:03:44.123Z,95.90
2022-07-28T04:06:13.127Z,94.80
2022-07-28T04:08:41.293Z,94.00
2022-07-28T04:11:09.018Z,93.50
2022-07-28T04:13:37.141Z,93.20
2022-07-28T04:16:06.956Z,93.00
2022-07-28T04:18:35.051Z,92.60
2022-07-28T04:21:02.639Z,92.20
2022-07-28T04:23:30.878Z,91.60
2022-07-28T04:25:58.495Z,90.80
2022-07-28T04:28:25.939Z,90.40
2022-07-28T04:30:53.306Z,90.00
2022-07-28T04:33:20.768Z,88.80
2022-07-28T04:35:48.504Z,88.50
2022-07-28T04:38:18.111Z,87.60
2022-07-28T04:40:49.012Z,86.60
2022-07-28T04:43:16.350Z,86.50
2022-07-28T04:45:54.257Z,86.00
2022-07-28T04:48:23.512Z,84.80
2022-07-28T04:50:53.421Z,83.50
2022-07-28T04:53:22.294Z,82.30
2022-07-28T04:55:51.489Z,82.10
2022-07-28T04:58:19.435Z,82.50
2022-07-28T05:00:49.885Z,81.50
2022-07-28T05:03:18.393Z,79.20
2022-07-28T05:05:47.469Z,78.70
2022-07-28T05:08:25.680Z,77.10
2022-07-28T05:10:56.009Z,76.50
2022-07-28T05:13:24.162Z,77.10
2022-07-28T05:15:51.550Z,77.20
2022-07-28T05:18:19.181Z,76.20
2022-07-28T05:20:46.576Z,74.50
2022-07-28T05:23:15.053Z,74.50
2022-07-28T05:25:42.442Z,74.20
2022-07-28T05:28:09.705Z,73.20
2022-07-28T05:30:38.256Z,72.00
2022-07-28T05:33:05.541Z,73.80
2022-07-28T05:35:32.844Z,75.80
2022-07-28T05:38:00.313Z,74.80
2022-07-28T05:40:28.229Z,74.30
2022-07-28T05:42:55.584Z,72.80
2022-07-28T05:45:23.211Z,72.50
2022-07-28T05:47:52.969Z,72.80
2022-07-28T05:50:22.202Z,72.20
2022-07-28T05:52:51.350Z,72.90
2022-07-28T05:55:19.424Z,71.70
2022-07-28T05:57:46.883Z,72.00
2022-07-28T06:00:21.433Z,72.80
2022-07-28T06:02:50.057Z,72.80
2022-07-28T06:05:22.191Z,73.20
2022-07-28T06:07:50.781Z,73.20
2022-07-28T06:10:20.748Z,74.50
2022-07-28T06:12:52.340Z,74.40
2022-07-28T06:15:22.428Z,74.50
2022-07-28T06:17:55.463Z,75.20
2022-07-28T06:20:24.838Z,75.70
2022-07-28T06:22:55.140Z,75.30
2022-07-28T06:25:25.638Z,75.50
2022-07-28T06:27:56.801Z,75.00
2022-07-28T06:30:24.803Z,74.50
2022-07-28T06:32:52.609Z,74.50
2022-07-28T06:35:20.307Z,75.10
2022-07-28T06:37:49.566Z,74.90
2022-07-28T06:40:18.497Z,74.10
2022-07-28T06:42:47.051Z,74.40
2022-07-28T06:45:19.503Z,73.50
2022-07-28T06:47:51.680Z,73.10
2022-07-28T06:50:25.865Z,72.60
2022-07-28T06:52:55.727Z,71.00
2022-07-28T06:55:23.167Z,70.80
2022-07-28T06:57:50.953Z,69.40
2022-07-28T07:00:18.404Z,69.00
2022-07-28T07:02:45.710Z,69.30
2022-07-28T07:05:13.968Z,69.30
2022-07-28T07:07:43.598Z,68.80
2022-07-28T07:10:12.023Z,68.30
2022-07-28T07:12:39.477Z,68.50
2022-07-28T07:15:08.142Z,68.00
2022-07-28T07:17:37.694Z,68.20
2022-07-28T07:20:07.262Z,67.70
2022-07-28T07:22:35.697Z,67.50
2022-07-28T07:25:11.566Z,66.70
2022-07-28T07:27:39.383Z,65.60
2022-07-28T07:30:07.894Z,64.90
2022-07-28T07:32:35.714Z,63.80
2022-07-28T07:35:03.451Z,63.40
2022-07-28T07:37:32.771Z,63.40
2022-07-28T07:40:04.966Z,62.80
2022-07-28T07:42:32.390Z,62.40
2022-07-28T07:44:59.886Z,62.10
2022-07-28T07:47:27.369Z,62.60
2022-07-28T07:49:54.895Z,63.10
2022-07-28T07:52:22.308Z,63.50
2022-07-28T07:54:49.574Z,63.20
2022-07-28T07:57:17.226Z,62.50
2022-07-28T07:59:44.607Z,62.40
2022-07-28T08:02:11.978Z,61.50
2022-07-28T08:04:40.356Z,62.20
2022-07-28T08:07:07.803Z,63.10
2022-07-28T08:09:35.419Z,62.80
2022-07-28T08:12:03.327Z,62.80
2022-07-28T08:14:30.695Z,61.80
2022-07-28T08:16:59.412Z,61.80
2022-07-28T08:19:26.955Z,60.60
2022-07-28T08:21:55.505Z,60.60
2022-07-28T08:24:32.308Z,60.60
2022-07-28T08:27:01.678Z,60.80
2022-07-28T08:29:29.329Z,59.90
2022-07-28T08:31:57.388Z,59.30
2022-07-28T08:34:31.638Z,59.20
2022-07-28T08:37:03.994Z,58.60
2022-07-28T08:39:32.664Z,59.00
2022-07-28T08:42:03.201Z,59.10
2022-07-28T08:45:03.982Z,58.90
2022-07-28T08:47:58.684Z,60.00
2022-07-28T08:50:24.550Z,60.00
2022-07-28T08:52:53.467Z,60.20
2022-07-28T08:55:31.648Z,60.00
2022-07-28T08:58:00.435Z,60.60
2022-07-28T09:00:28.309Z,60.80
2022-07-28T09:02:56.374Z,59.60
2022-07-28T09:05:24.340Z,59.50
2022-07-28T09:07:55.475Z,59.10
2022-07-28T09:10:23.401Z,59.70
2022-07-28T09:12:51.237Z,59.80
2022-07-28T09:15:18.687Z,59.70
2022-07-28T09:17:45.974Z,59.90
2022-07-28T09:20:14.403Z,60.10
2022-07-28T09:22:59.461Z,60.60
2022-07-28T09:25:28.046Z,60.50
2022-07-28T09:27:56.324Z,59.60
2022-07-28T09:30:31.833Z,59.60
2022-07-28T09:33:42.397Z,59.60
2022-07-28T09:36:12.920Z,59.30
2022-07-28T09:38:42.037Z,58.50
2022-07-28T09:41:09.684Z,58.50
2022-07-28T09:43:49.756Z,58.20
2022-07-28T09:46:24.303Z,57.40
2022-07-28T09:49:00.421Z,57.70
2022-07-28T09:51:33.531Z,56.50
2022-07-28T09:54:14.374Z,56.10
2022-07-28T09:56:44.500Z,56.00
2022-07-28T09:59:14.699Z,55.40
2022-07-28T10:02:01.738Z,55.30
2022-07-28T10:04:42.801Z,55.40
2022-07-28T10:07:19.704Z,54.50
2022-07-28T10:10:20.157Z,53.70
2022-07-28T10:12:47.650Z,53.70
2022-07-28T10:15:38.368Z,53.20
2022-07-28T10:18:14.130Z,52.00
2022-07-28T10:20:42.356Z,52.00
2022-07-28T10:23:13.969Z,52.50
2022-07-28T10:25:44.303Z,53.40
2022-07-28T10:28:13.303Z,53.40
2022-07-28T10:30:41.744Z,53.00
2022-07-28T10:33:15.065Z,53.00
2022-07-28T10:35:45.211Z,53.90
2022-07-28T10:38:22.707Z,53.80
2022-07-28T10:40:52.663Z,52.40
2022-07-28T10:43:20.614Z,52.70
2022-07-28T10:46:05.018Z,51.50
2022-07-28T10:48:33.713Z,50.30
2022-07-28T10:51:01.674Z,50.40
2022-07-28T10:53:49.411Z,49.70
2022-07-28T10:56:24.447Z,49.00
2022-07-28T10:59:10.501Z,48.70
2022-07-28T11:01:49.826Z,48.10
2022-07-28T11:04:52.382Z,47.80
2022-07-28T11:07:20.822Z,47.60
2022-07-28T11:09:48.761Z,48.30
2022-07-28T11:12:16.804Z,48.70
2022-07-28T11:14:45.062Z,48.90
2022-07-28T11:17:16.367Z,49.30
2022-07-28T11:20:16.349Z,48.70
2022-07-28T11:22:40.850Z,47.80
2022-07-28T11:25:19.785Z,47.60
2022-07-28T11:27:52.650Z,47.70
2022-07-28T11:30:26.067Z,47.50
2022-07-28T11:32:53.514Z,48.00
2022-07-28T11:35:25.822Z,48.30
2022-07-28T11:38:02.247Z,47.30
2022-07-28T11:40:32.803Z,47.10
2022-07-28T11:43:28.677Z,47.00
2022-07-28T11:46:07.031Z,46.60
2022-07-28T11:48:39.866Z,46.90
2022-07-28T11:51:07.447Z,46.90
2022-07-28T11:53:44.561Z,46.50
2022-07-28T11:56:22.018Z,46.40
2022-07-28T11:58:58.157Z,45.90
2022-07-28T12:01:25.751Z,45.80
2022-07-28T12:03:56.803Z,45.90
2022-07-28T12:06:39.173Z,45.70
2022-07-28T12:09:09.090Z,45.20
2022-07-28T12:11:39.073Z,45.30
2022-07-28T12:14:11.814Z,45.10
2022-07-28T12:16:41.839Z,44.40
2022-07-28T12:19:10.562Z,43.90
2022-07-28T12:21:46.211Z,44.80
2022-07-28T12:24:45.946Z,45.30
2022-07-28T12:27:15.230Z,45.90
2022-07-28T12:29:47.881Z,45.60
2022-07-28T12:32:17.585Z,45.20
2022-07-28T12:34:45.468Z,45.60
2022-07-28T12:37:13.853Z,44.80
2022-07-28T12:39:43.450Z,44.90
2022-07-28T12:42:12.820Z,45.00
2022-07-28T12:44:47.426Z,44.80
2022-07-28T12:47:24.330Z,43.50
2022-07-28T12:50:10.884Z,42.60
2022-07-28T12:52:38.240Z,41.50
2022-07-28T12:55:24.998Z,41.20
2022-07-28T12:57:52.943Z,40.60
2022-07-28T13:00:42.510Z,40.10
2022-07-28T13:03:27.940Z,40.10
2022-07-28T13:06:02.587Z,39.70
2022-07-28T13:08:44.527Z,40.20
2022-07-28T13:11:42.502Z,39.60
2022-07-28T13:14:02.928Z,40.20
2022-07-28T13:16:30.569Z,40.80
2022-07-28T13:19:02.806Z,41.00
2022-07-28T13:21:56.572Z,41.30
2022-07-28T13:24:27.193Z,41.60
2022-07-28T13:26:54.796Z,41.50
2022-07-28T13:29:22.851Z,41.70
2022-07-28T13:31:50.736Z,41.70
2022-07-28T13:34:18.382Z,42.00
2022-07-28T13:36:46.108Z,41.90
2022-07-28T13:39:16.772Z,41.80
2022-07-28T13:41:57.914Z,41.60
2022-07-28T13:44:27.560Z,41.60
2022-07-28T13:46:55.857Z,42.00
2022-07-28T13:49:24.267Z,41.70
2022-07-28T13:51:51.768Z,41.40
2022-07-28T13:54:20.619Z,41.50
2022-07-28T13:56:48.650Z,41.50
2022-07-28T13:59:35.457Z,41.30
2022-07-28T14:02:05.576Z,40.80
2022-07-28T14:04:45.842Z,40.70
2022-07-28T14:07:20.674Z,40.90
2022-07-28T14:09:50.716Z,41.40
2022-07-28T14:12:18.405Z,42.00
2022-07-28T14:14:48.410Z,42.00
2022-07-28T14:17:43.432Z,41.70
2022-07-28T14:20:16.055Z,41.70
2022-07-28T14:22:46.256Z,41.60
2022-07-28T14:25:20.918Z,41.00
2022-07-28T14:27:50.658Z,41.10
2022-07-28T14:30:19.459Z,41.00
2022-07-28T14:32:47.051Z,41.20
2022-07-28T14:35:42.447Z,42.00
2022-07-28T14:41:00.008Z,41.60
2022-07-28T14:43:27.289Z,41.40
2022-07-28T14:46:13.280Z,41.70
2022-07-28T14:48:42.317Z,41.50
2022-07-28T14:51:11.905Z,41.40
2022-07-28T14:53:40.065Z,41.30
2022-07-28T14:56:17.341Z,41.50
2022-07-28T14:58:44.952Z,41.30
2022-07-28T15:01:12.522Z,41.20
2022-07-28T15:03:43.245Z,40.80
2022-07-28T15:06:11.007Z,40.20
2022-07-28T15:08:38.339Z,39.80
2022-07-28T15:11:05.792Z,39.60
2022-07-28T15:13:33.234Z,39.70
2022-07-28T15:16:00.709Z,40.20
2022-07-28T15:18:28.124Z,40.10
2022-07-28T15:20:56.237Z,39.70
2022-07-28T15:23:24.374Z,40.00
2022-07-28T15:25:53.302Z,40.00
2022-07-28T15:28:20.962Z,39.90
2022-07-28T15:30:51.906Z,39.40
2022-07-28T15:33:21.161Z,39.30
2022-07-28T15:35:57.553Z,39.20
2022-07-28T15:38:27.917Z,39.50
2022-07-28T15:40:58.874Z,39.30
2022-07-28T15:43:27.382Z,39.20
2022-07-28T15:45:56.392Z,39.20
2022-07-28T15:48:23.974Z,39.50
2022-07-28T15:50:51.726Z,39.80
2022-07-28T15:53:19.306Z,39.80
2022-07-28T15:55:50.999Z,39.70
2022-07-28T15:58:20.418Z,39.50
2022-07-28T16:00:50.968Z,39.50
2022-07-28T16:03:19.017Z,39.80
2022-07-28T16:05:49.566Z,40.40
2022-07-28T16:08:22.892Z,41.10
2022-07-28T16:10:52.665Z,41.60
2022-07-28T16:13:36.222Z,42.30
2022-07-28T16:16:09.639Z,41.60
2022-07-28T16:18:38.360Z,42.00
2022-07-28T16:21:07.317Z,42.40
2022-07-28T16:23:35.262Z,41.70
2022-07-28T16:26:03.990Z,41.70
2022-07-28T16:28:31.248Z,41.90
2022-07-28T16:30:58.619Z,41.90
2022-07-28T16:33:25.985Z,41.80
2022-07-28T16:35:53.289Z,41.80
2022-07-28T16:38:20.747Z,41.80
2022-07-28T16:40:48.076Z,41.90
2022-07-28T16:43:15.541Z,42.20
2022-07-28T16:45:42.952Z,42.40
2022-07-28T16:48:10.241Z,42.50
2022-07-28T16:50:38.557Z,42.60
2022-07-28T16:53:09.046Z,43.10
2022-07-28T16:55:36.359Z,43.30
2022-07-28T16:58:03.777Z,43.60
2022-07-28T17:00:31.441Z,44.00
2022-07-28T17:02:58.819Z,44.30
2022-07-28T17:05:26.302Z,44.70
2022-07-28T17:07:53.789Z,44.90
2022-07-28T17:10:27.304Z,45.10
2022-07-28T17:12:55.753Z,45.30
2022-07-28T17:15:23.592Z,45.50
2022-07-28T17:17:51.783Z,45.60
2022-07-28T17:20:20.210Z,45.80
2022-07-28T17:22:47.614Z,46.60
2022-07-28T17:28:04.124Z,46.40
2022-07-28T17:30:33.080Z,46.50
2022-07-28T17:33:07.678Z,46.80
2022-07-28T17:35:36.905Z,46.80
2022-07-28T17:38:05.658Z,47.00
2022-07-28T17:40:33.328Z,47.10
2022-07-28T17:43:00.636Z,47.20
2022-07-28T17:45:28.174Z,47.30
2022-07-28T17:47:55.444Z,47.50
2022-07-28T17:50:22.763Z,47.70
2022-07-28T17:52:50.036Z,47.70
2022-07-28T17:55:58.052Z,47.80
2022-07-28T17:58:28.813Z,48.10
2022-07-28T18:01:11.217Z,48.50
2022-07-28T18:03:58.627Z,48.80
2022-07-28T18:06:30.291Z,49.10
2022-07-28T18:09:07.263Z,49.40
2022-07-28T18:11:55.261Z,49.70
2022-07-28T18:14:28.561Z,50.00
2022-07-28T18:16:56.695Z,50.30
2022-07-28T18:19:24.058Z,51.00
2022-07-28T18:21:51.648Z,50.40
2022-07-28T18:24:21.925Z,50.80
2022-07-28T18:26:53.044Z,51.20
2022-07-28T18:29:21.750Z,51.50
2022-07-28T18:31:50.936Z,51.80
2022-07-28T18:34:19.581Z,52.20
2022-07-28T18:36:51.014Z,52.70
2022-07-28T18:39:18.345Z,53.10
2022-07-28T18:41:47.838Z,53.60
2022-07-28T18:44:17.585Z,53.90
2022-07-28T18:46:45.735Z,54.30
2022-07-28T18:49:13.529Z,54.50
2022-07-28T18:51:45.155Z,54.70
2022-07-28T18:54:21.585Z,54.90
2022-07-28T18:56:54.539Z,55.30
2022-07-28T18:59:22.393Z,55.60
2022-07-28T19:01:49.781Z,55.90
2022-07-28T19:04:17.629Z,56.10
2022-07-28T19:06:45.188Z,56.50
2022-07-28T19:09:12.511Z,56.60
2022-07-28T19:11:45.351Z,57.10
2022-07-28T19:14:17.232Z,57.00
2022-07-28T19:16:45.341Z,57.00
2022-07-28T19:19:13.406Z,57.40
2022-07-28T19:21:43.130Z,57.40
2022-07-28T19:24:13.154Z,57.50
2022-07-28T19:26:42.737Z,57.50
2022-07-28T19:29:10.017Z,58.30
2022-07-28T19:31:37.503Z,58.20
2022-07-28T19:34:04.981Z,58.70
2022-07-28T19:36:32.569Z,58.90
2022-07-28T19:39:00.250Z,59.10
2022-07-28T19:41:28.392Z,59.30
2022-07-28T19:43:57.049Z,59.30
2022-07-28T19:46:24.854Z,59.30
2022-07-28T19:48:54.141Z,59.20
2022-07-28T19:51:21.587Z,59.40
2022-07-28T19:53:49.073Z,59.40
2022-07-28T19:56:17.511Z,59.40
2022-07-28T19:58:45.204Z,59.50
2022-07-28T20:01:12.581Z,59.50
2022-07-28T20:04:03.255Z,59.70
2022-07-28T20:06:28.468Z,59.90
2022-07-28T20:08:57.007Z,60.00
2022-07-28T20:11:24.547Z,60.10
2022-07-28T20:13:51.988Z,61.10
2022-07-28T20:16:20.367Z,60.20
2022-07-28T20:18:47.726Z,60.10
2022-07-28T20:21:15.054Z,60.20
2022-07-28T20:23:43.830Z,60.20
2022-07-28T20:26:11.482Z,60.20
2022-07-28T20:28:38.884Z,60.10
2022-07-28T20:31:07.224Z,60.20
2022-07-28T20:33:34.734Z,60.50
2022-07-28T20:36:02.874Z,60.60
2022-07-28T20:38:30.161Z,61.70
2022-07-28T20:40:57.444Z,62.40
2022-07-28T20:43:24.861Z,62.80
2022-07-28T20:46:05.119Z,62.90
2022-07-28T20:48:32.794Z,63.10
2022-07-28T20:51:00.342Z,63.10
2022-07-28T20:53:27.678Z,63.60
2022-07-28T20:55:55.157Z,63.90
2022-07-28T20:58:22.572Z,63.90
2022-07-28T21:00:51.364Z,64.10
2022-07-28T21:03:19.291Z,64.20
2022-07-28T21:05:46.550Z,64.40
2022-07-28T21:08:16.097Z,64.50
2022-07-28T21:10:44.458Z,64.80
2022-07-28T21:13:11.778Z,65.10
2022-07-28T21:15:39.247Z,65.30
2022-07-28T21:18:06.604Z,65.90
2022-07-28T21:20:34.090Z,66.30
2022-07-28T21:23:01.348Z,66.50
2022-07-28T21:25:31.782Z,66.10
2022-07-28T21:28:18.229Z,66.20
2022-07-28T21:30:46.098Z,66.30
2022-07-28T21:33:13.680Z,66.40
2022-07-28T21:35:50.665Z,66.70
2022-07-28T21:38:17.991Z,66.90
2022-07-28T21:40:45.478Z,67.30
2022-07-28T21:43:12.876Z,67.70
2022-07-28T21:45:40.465Z,67.90
2022-07-28T21:48:07.807Z,68.30
2022-07-28T21:50:37.300Z,68.70
2022-07-28T21:53:05.112Z,68.60
2022-07-28T21:55:32.801Z,68.40
2022-07-28T21:58:00.156Z,68.60
2022-07-28T22:00:27.568Z,68.90
2022-07-28T22:02:55.033Z,69.10
2022-07-28T22:05:22.738Z,69.40
2022-07-28T22:07:50.565Z,69.70
2022-07-28T22:10:18.767Z,69.80
2022-07-28T22:12:46.391Z,69.80
2022-07-28T22:15:13.742Z,69.80
2022-07-28T22:17:41.748Z,69.90
2022-07-28T22:20:10.699Z,70.00
2022-07-28T22:22:38.087Z,70.30
2022-07-28T22:25:06.018Z,70.60
2022-07-28T22:27:33.303Z,70.80
2022-07-28T22:30:00.618Z,71.20
2022-07-28T22:32:29.267Z,71.20
2022-07-28T22:34:59.677Z,71.40
2022-07-28T22:37:27.180Z,71.70
2022-07-28T22:39:54.780Z,72.00
2022-07-28T22:42:22.417Z,72.30
2022-07-28T22:44:50.135Z,72.50
2022-07-28T22:47:17.802Z,72.60
2022-07-28T22:49:45.090Z,72.60
2022-07-28T22:52:12.600Z,72.70
2022-07-28T22:54:40.561Z,72.50
2022-07-28T22:57:08.103Z,72.80
2022-07-28T22:59:38.568Z,72.80
2022-07-28T23:02:08.039Z,72.90
2022-07-28T23:04:38.598Z,73.00
2022-07-28T23:07:12.007Z,73.00
2022-07-28T23:09:40.204Z,73.00
2022-07-28T23:12:08.284Z,73.00
2022-07-28T23:14:35.854Z,73.20
2022-07-28T23:17:03.965Z,73.70
2022-07-28T23:19:31.284Z,73.90
2022-07-28T23:21:58.554Z,74.10
2022-07-28T23:24:26.083Z,74.00
2022-07-28T23:26:53.325Z,74.20
2022-07-28T23:29:20.667Z,74.30
2022-07-28T23:31:49.791Z,74.20
2022-07-28T23:34:17.343Z,74.10
2022-07-28T23:36:45.093Z,73.90
2022-07-28T23:39:12.881Z,73.60
2022-07-28T23:41:40.509Z,73.30
2022-07-28T23:44:07.838Z,73.20
2022-07-28T23:46:35.137Z,73.10
2022-07-28T23:49:02.646Z,72.90
2022-07-28T23:51:38.327Z,73.10
2022-07-28T23:54:16.518Z,73.20
2022-07-28T23:56:44.153Z,73.40
2022-07-28T23:59:14.147Z,73.60
